Map

Track Data

SID SEASON NUMBER BASIN SUBBASIN NAME ISO_TIME NATURE LAT LON WMO_WIND WMO_PRES WMO_AGENCY TRACK_TYPE DIST2LAND LANDFALL IFLAG USA_AGENCY USA_ATCF_ID USA_LAT USA_LON USA_RECORD USA_STATUS USA_WIND USA_PRES USA_SSHS USA_R34_NE USA_R34_SE USA_R34_SW USA_R34_NW USA_R50_NE USA_R50_SE USA_R50_SW USA_R50_NW USA_R64_NE USA_R64_SE USA_R64_SW USA_R64_NW USA_POCI USA_ROCI USA_RMW USA_EYE TOKYO_LAT TOKYO_LON TOKYO_GRADE TOKYO_WIND TOKYO_PRES TOKYO_R50_DIR TOKYO_R50_LONG TOKYO_R50_SHORT TOKYO_R30_DIR TOKYO_R30_LONG TOKYO_R30_SHORT TOKYO_LAND CMA_LAT CMA_LON CMA_CAT CMA_WIND CMA_PRES HKO_LAT HKO_LON HKO_CAT HKO_WIND HKO_PRES NEWDELHI_LAT NEWDELHI_LON NEWDELHI_GRADE NEWDELHI_WIND NEWDELHI_PRES NEWDELHI_CI NEWDELHI_DP NEWDELHI_POCI REUNION_LAT REUNION_LON REUNION_TYPE REUNION_WIND REUNION_PRES REUNION_TNUM REUNION_CI REUNION_RMW REUNION_R34_NE REUNION_R34_SE REUNION_R34_SW REUNION_R34_NW REUNION_R50_NE REUNION_R50_SE REUNION_R50_SW REUNION_R50_NW REUNION_R64_NE REUNION_R64_SE REUNION_R64_SW REUNION_R64_NW BOM_LAT BOM_LON BOM_TYPE BOM_WIND BOM_PRES BOM_TNUM BOM_CI BOM_RMW BOM_R34_NE BOM_R34_SE BOM_R34_SW BOM_R34_NW BOM_R50_NE BOM_R50_SE BOM_R50_SW BOM_R50_NW BOM_R64_NE BOM_R64_SE BOM_R64_SW BOM_R64_NW BOM_ROCI BOM_POCI BOM_EYE BOM_POS_METHOD BOM_PRES_METHOD NADI_LAT NADI_LON NADI_CAT NADI_WIND NADI_PRES WELLINGTON_LAT WELLINGTON_LON WELLINGTON_WIND WELLINGTON_PRES DS824_LAT DS824_LON DS824_STAGE DS824_WIND DS824_PRES TD9636_LAT TD9636_LON TD9636_STAGE TD9636_WIND TD9636_PRES TD9635_LAT TD9635_LON TD9635_WIND TD9635_PRES TD9635_ROCI NEUMANN_LAT NEUMANN_LON NEUMANN_CLASS NEUMANN_WIND NEUMANN_PRES MLC_LAT MLC_LON MLC_CLASS MLC_WIND MLC_PRES USA_GUST BOM_GUST BOM_GUST_PER REUNION_GUST REUNION_GUST_PER USA_SEAHGT USA_SEARAD_NE USA_SEARAD_SE USA_SEARAD_SW USA_SEARAD_NW STORM_SPEED STORM_DIR
1871192S04095 1872 14 SI WA NOT_NAMED 1871-07-11 06:00:00 NR -3.70000 95.2000 main 468 468 _____O________ -1 -3.70000 95.2000 99 9.90000 1 94
1871192S04095 1872 14 SI WA NOT_NAMED 1871-07-11 09:00:00 NR -3.70269 95.2458 main 468 458 _____P________ -1 -3.70269 95.2458 99 1 99
1871192S04095 1872 14 SI WA NOT_NAMED 1871-07-11 12:00:00 NR -3.71226 95.2837 main 458 458 _____P________ -1 -3.71226 95.2837 99 1 119
1871192S04095 1872 14 SI WA NOT_NAMED 1871-07-11 15:00:00 NR -3.73560 95.3057 main 458 458 _____P________ -1 -3.73560 95.3057 99 1 169
1871192S04095 1872 14 SI WA NOT_NAMED 1871-07-11 18:00:00 NR -3.77961 95.3039 main 464 464 _____P________ -1 -3.77961 95.3039 99 1 203
1871192S04095 1872 14 SI WA NOT_NAMED 1871-07-11 21:00:00 NR -3.85116 95.2704 main 470 470 _____P________ -1 -3.85116 95.2704 99 2 210
1871192S04095 1872 14 SI WA NOT_NAMED 1871-07-12 00:00:00 NR -3.95715 95.1972 main 485 485 _____P________ -1 -3.95715 95.1972 99 3 217
1871192S04095 1872 14 SI WA NOT_NAMED 1871-07-12 03:00:00 NR -4.10447 95.0764 main 500 500 _____P________ -1 -4.10447 95.0764 99 5 221
1871192S04095 1872 14 SI WA NOT_NAMED 1871-07-12 06:00:00 NR -4.30000 94.9000 main 531 531 _____O________ -1 -4.30000 94.9000 99 9.90000 6 223
1871192S04095 1872 14 SI WA NOT_NAMED 1871-07-12 09:00:00 NR -4.54785 94.6636 main 562 562 _____P________ -1 -4.54785 94.6636 99 8 224
1871192S04095 1872 14 SI WA NOT_NAMED 1871-07-12 12:00:00 NR -4.84097 94.3773 main 608 608 _____P________ -1 -4.84097 94.3773 99 9 224
1871192S04095 1872 14 SI WA NOT_NAMED 1871-07-12 15:00:00 NR -5.16951 94.0553 main 661 661 _____P________ -1 -5.16951 94.0553 99 10 224
1871192S04095 1872 14 SI WA NOT_NAMED 1871-07-12 18:00:00 NR -5.52365 93.7115 main 717 717 _____P________ -1 -5.52365 93.7115 99 10 224
1871192S04095 1872 14 SI WA NOT_NAMED 1871-07-12 21:00:00 NR -5.89354 93.3600 main 771 771 _____P________ -1 -5.89354 93.3600 99 10 223
1871192S04095 1872 14 SI WA NOT_NAMED 1871-07-13 00:00:00 NR -6.26939 93.0148 main 833 833 _____P________ -1 -6.26939 93.0148 99 10 222
1871192S04095 1872 14 SI WA NOT_NAMED 1871-07-13 03:00:00 NR -6.64144 92.6901 main 880 880 _____P________ -1 -6.64144 92.6901 99 10 220
1871192S04095 1872 14 SI WA NOT_NAMED 1871-07-13 06:00:00 NR -7.00000 92.4000 main 934 934 _____O________ -1 -7.00000 92.4000 99 9.90000 8 219
1871192S04095 1872 14 SI WA NOT_NAMED 1871-07-13 09:00:00 NR -7.27911 92.1761 main 972 972 _____P________ -1 -7.27911 92.1761 99 7 217
1871192S04095 1872 14 SI WA NOT_NAMED 1871-07-13 12:00:00 NR -7.54659 91.9793 main 1003 1003 _____P________ -1 -7.54659 91.9793 99 6 215
1871192S04095 1872 14 SI WA NOT_NAMED 1871-07-13 15:00:00 NR -7.80945 91.8084 main 1042 1042 _____P________ -1 -7.80945 91.8084 99 6 211
1871192S04095 1872 14 SI WA NOT_NAMED 1871-07-13 18:00:00 NR -8.07471 91.6622 main 1072 1072 _____P________ -1 -8.07471 91.6622 99 6 206
1871192S04095 1872 14 SI WA NOT_NAMED 1871-07-13 21:00:00 NR -8.34938 91.5395 main 1104 1104 _____P________ -1 -8.34938 91.5395 99 6 201
1871192S04095 1872 14 SI WA NOT_NAMED 1871-07-14 00:00:00 NR -8.64048 91.4390 main 1134 1134 _____P________ -1 -8.64048 91.4390 99 6 196
1871192S04095 1872 14 SI WA NOT_NAMED 1871-07-14 03:00:00 NR -8.95502 91.3596 main 1165 1165 _____P________ -1 -8.95502 91.3596 99 7 192
1871192S04095 1872 14 SI WA NOT_NAMED 1871-07-14 06:00:00 NR -9.30000 91.3000 main 1197 1197 _____O________ -1 -9.30000 91.3000 99 9.90000 8 191
1871192S04095 1872 14 SI WA NOT_NAMED 1871-07-14 09:00:00 NR -9.71063 91.2149 main 1236 1236 _____P________ -1 -9.71063 91.2149 99 9 190
1871192S04095 1872 14 SI WA NOT_NAMED 1871-07-14 12:00:00 NR -10.1525 91.1489 main 1285 1285 _____P________ -1 -10.1525 91.1489 99 9 187
1871192S04095 1872 14 SI WA NOT_NAMED 1871-07-14 15:00:00 NR -10.6174 91.1045 main 1318 1318 _____P________ -1 -10.6174 91.1045 99 10 184
1871192S04095 1872 14 SI WA NOT_NAMED 1871-07-14 18:00:00 NR -11.0971 91.0843 main 1360 1360 _____P________ -1 -11.0971 91.0843 99 10 0
1871192S04095 1872 14 SI WA NOT_NAMED 1871-07-14 21:00:00 NR -11.5834 91.0911 main 1404 1404 _____P________ -1 -11.5834 91.0911 99 10 178
1871192S04095 1872 14 SI WA NOT_NAMED 1871-07-15 00:00:00 NR -12.0681 91.1275 main 1448 1448 _____P________ -1 -12.0681 91.1275 99 10 174
1871192S04095 1872 14 SI WA NOT_NAMED 1871-07-15 03:00:00 NR -12.5430 91.1962 main 1478 1478 _____P________ -1 -12.5430 91.1962 99 10 170
1871192S04095 1872 14 SI WA NOT_NAMED 1871-07-15 06:00:00 NR -13.0000 91.3000 main 1517 1517 _____O________ -1 -13.0000 91.3000 99 9.90000 9 164
1871192S04095 1872 14 SI WA NOT_NAMED 1871-07-15 09:00:00 NR -13.4384 91.4552 main 1543 1543 _____P________ -1 -13.4384 91.4552 99 9 159
1871192S04095 1872 14 SI WA NOT_NAMED 1871-07-15 12:00:00 NR -13.8658 91.6505 main 1579 1579 _____P________ -1 -13.8658 91.6505 99 9 154
1871192S04095 1872 14 SI WA NOT_NAMED 1871-07-15 15:00:00 NR -14.2786 91.8758 main 1607 1607 _____P________ -1 -14.2786 91.8758 99 9 150
1871192S04095 1872 14 SI WA NOT_NAMED 1871-07-15 18:00:00 NR -14.6733 92.1213 main 1636 1631 _____P________ -1 -14.6733 92.1213 99 9 148
1871192S04095 1872 14 SI WA NOT_NAMED 1871-07-15 21:00:00 NR -15.0464 92.3768 main 1641 1641 _____P________ -1 -15.0464 92.3768 99 9 146
1871192S04095 1872 14 SI WA NOT_NAMED 1871-07-16 00:00:00 NR -15.3941 92.6319 main 1660 1653 _____P________ -1 -15.3941 92.6319 99 8 144
1871192S04095 1872 14 SI WA NOT_NAMED 1871-07-16 03:00:00 NR -15.7132 92.8765 main 1664 1664 _____P________ -1 -15.7132 92.8765 99 8 143
1871192S04095 1872 14 SI WA NOT_NAMED 1871-07-16 06:00:00 NR -16.0000 93.1000 main 1673 1669 _____O________ -1 -16.0000 93.1000 99 9.90000 7 143
1871192S04095 1872 14 SI WA NOT_NAMED 1871-07-16 09:00:00 NR -16.2526 93.2944 main 1676 1667 _____P________ -1 -16.2526 93.2944 99 6 144
1871192S04095 1872 14 SI WA NOT_NAMED 1871-07-16 12:00:00 NR -16.4740 93.4612 main 1673 1672 _____P________ -1 -16.4740 93.4612 99 5 145
1871192S04095 1872 14 SI WA NOT_NAMED 1871-07-16 15:00:00 NR -16.6689 93.6041 main 1679 1671 _____P________ -1 -16.6689 93.6041 99 4 146
1871192S04095 1872 14 SI WA NOT_NAMED 1871-07-16 18:00:00 NR -16.8416 93.7272 main 1678 1677 _____P________ -1 -16.8416 93.7272 99 4 146
1871192S04095 1872 14 SI WA NOT_NAMED 1871-07-16 21:00:00 NR -16.9967 93.8343 main 1685 1677 _____P________ -1 -16.9967 93.8343 99 4 147
1871192S04095 1872 14 SI WA NOT_NAMED 1871-07-17 00:00:00 NR -17.1385 93.9295 main 1684 1684 _____P________ -1 -17.1385 93.9295 99 3 148
1871192S04095 1872 14 SI WA NOT_NAMED 1871-07-17 03:00:00 NR -17.2715 94.0167 main 1691 1684 _____P________ -1 -17.2715 94.0167 99 3 148
1871192S04095 1872 14 SI WA NOT_NAMED 1871-07-17 06:00:00 NR -17.4000 94.1000 main 1691 _____O________ -1 -17.4000 94.1000 99 9.90000 3 147

About IBTrACS Database

This database is a web-friendly format of International Best Track Archive for Climate Stewardship (IBTrACS), a global best track data archive curated by NOAA dating back to 1842.

Updated: 2021-11-26